Time;durP1;ratioP1;P1;durP2;ratioP2;P2;SDS_P1;SDS_P2;PMS_P1;PMS_P2;Temp;Humidity;BMP_temperature;BMP_pressure;BME280_temperature;BME280_humidity;BME280_pressure;Samples;Min_cycle;Max_cycle;Signal;HPM_P1;HPM_P2
2022/07/14 00:02:23;;;;;;;;;;;;;;;22.39;42.30;101079.50;5033641;28;20006;-82
2022/07/14 00:04:49;;;;;;;;;;;;;;;22.28;43.53;101072.88;5026415;28;19919;-80
2022/07/14 00:07:15;;;;;;;;;;;;;;;22.22;43.82;101079.25;5035897;28;19925;-77
2022/07/14 00:09:40;;;;;;;;;;;;;;;22.18;44.41;101083.50;5013553;28;19995;-78
2022/07/14 00:12:05;;;;;;;;;;;;;;;22.22;43.93;101088.34;5008242;28;20086;-80
2022/07/14 00:14:34;;;;;;;;;;;;;;;22.21;44.16;101081.16;5012726;28;20059;-81
2022/07/14 00:17:00;;;;;;;;;;;;;;;22.13;44.38;101079.53;5014453;28;19927;-80
2022/07/14 00:19:25;;;;;;;;;;;;;;;22.09;44.18;101080.22;5012912;28;19955;-80
2022/07/14 00:21:52;;;;;;;;;;;;;;;22.12;44.02;101087.97;4996880;28;19913;-80
2022/07/14 00:24:18;;;;;;;;;;;;;;;22.14;43.34;101080.38;5012773;28;19909;-80
2022/07/14 00:26:44;;;;;;;;;;;;;;;21.86;43.25;101086.34;4999022;28;19917;-80
2022/07/14 00:29:09;;;;;;;;;;;;;;;21.78;42.63;101090.22;5030972;28;19929;-80
2022/07/14 00:31:34;;;;;;;;;;;;;;;21.94;42.47;101091.53;5033325;28;20345;-80
2022/07/14 00:34:00;;;;;;;;;;;;;;;21.87;42.17;101093.50;5032889;28;19912;-80
2022/07/14 00:36:26;;;;;;;;;;;;;;;21.67;42.15;101093.69;5015473;28;19916;-80
2022/07/14 00:38:52;;;;;;;;;;;;;;;21.49;42.88;101092.56;5033719;28;19920;-83
2022/07/14 00:41:17;;;;;;;;;;;;;;;21.48;42.20;101090.06;5033624;28;20007;-79
2022/07/14 00:43:42;;;;;;;;;;;;;;;21.45;42.79;101090.50;5034376;28;20385;-80
2022/07/14 00:46:08;;;;;;;;;;;;;;;21.43;42.87;101098.09;5032209;28;20376;-79
2022/07/14 00:48:34;;;;;;;;;;;;;;;21.30;42.84;101085.31;4997181;28;19909;-80
2022/07/14 00:50:59;;;;;;;;;;;;;;;21.32;42.92;101088.66;5031056;28;19917;-80
2022/07/14 00:53:24;;;;;;;;;;;;;;;21.34;43.23;101086.56;5041209;28;19912;-79
2022/07/14 00:55:50;;;;;;;;;;;;;;;21.24;43.54;101087.03;5030334;28;20258;-79
2022/07/14 00:58:15;;;;;;;;;;;;;;;21.16;44.00;101091.94;5033589;28;20349;-80
2022/07/14 01:00:43;;;;;;;;;;;;;;;21.01;44.40;101087.63;5012750;28;20303;-79
2022/07/14 01:03:08;;;;;;;;;;;;;;;20.99;44.35;101075.22;5037475;28;20277;-79
2022/07/14 01:05:33;;;;;;;;;;;;;;;21.03;44.61;101087.41;5013041;28;19909;-81
2022/07/14 01:07:59;;;;;;;;;;;;;;;20.97;44.92;101085.53;5035574;28;19917;-79
2022/07/14 01:10:24;;;;;;;;;;;;;;;20.85;45.18;101083.50;5030230;28;19913;-78
2022/07/14 01:12:49;;;;;;;;;;;;;;;20.76;45.96;101079.34;5018296;28;19948;-80
2022/07/14 01:15:15;;;;;;;;;;;;;;;20.82;45.88;101083.94;5012546;28;19909;-78
2022/07/14 01:17:40;;;;;;;;;;;;;;;20.89;45.77;101080.34;5019248;28;19959;-79
2022/07/14 01:20:06;;;;;;;;;;;;;;;20.80;45.86;101082.50;5026083;28;19974;-79
2022/07/14 01:22:31;;;;;;;;;;;;;;;20.60;45.35;101085.31;5038761;28;20363;-79
2022/07/14 01:24:57;;;;;;;;;;;;;;;20.56;44.79;101092.28;5015027;28;20349;-79
2022/07/14 01:27:22;;;;;;;;;;;;;;;20.60;44.61;101091.63;5014979;28;19920;-80
2022/07/14 01:29:47;;;;;;;;;;;;;;;20.47;44.86;101088.06;5030555;28;19917;-80
2022/07/14 01:32:13;;;;;;;;;;;;;;;20.44;44.19;101090.19;5031941;28;19913;-79
2022/07/14 01:34:38;;;;;;;;;;;;;;;20.35;44.06;101096.94;4994745;28;19955;-79
2022/07/14 01:37:03;;;;;;;;;;;;;;;20.42;44.09;101092.28;5013599;28;20395;-79
2022/07/14 01:39:29;;;;;;;;;;;;;;;20.57;43.64;101094.78;5033050;28;20352;-79
2022/07/14 01:41:54;;;;;;;;;;;;;;;20.60;42.77;101093.50;5014885;28;19913;-79
2022/07/14 01:44:19;;;;;;;;;;;;;;;20.66;42.64;101098.09;5033247;28;19917;-80
2022/07/14 01:46:45;;;;;;;;;;;;;;;20.66;42.73;101089.91;5014555;28;20389;-81
2022/07/14 01:49:10;;;;;;;;;;;;;;;20.65;42.29;101096.44;5015303;28;19909;-80
2022/07/14 01:51:35;;;;;;;;;;;;;;;20.44;41.88;101098.38;4999464;28;20298;-80
2022/07/14 01:54:01;;;;;;;;;;;;;;;20.50;42.42;101101.28;5036038;28;19919;-79
2022/07/14 01:56:26;;;;;;;;;;;;;;;20.33;41.92;101109.13;5032175;28;19917;-80
2022/07/14 01:58:51;;;;;;;;;;;;;;;20.28;42.19;101101.56;5001526;28;19915;-79
2022/07/14 02:04:01;;;;;;;;;;;;;;;20.40;41.62;101099.03;5015675;28;19920;-79
2022/07/14 02:06:26;;;;;;;;;;;;;;;20.34;41.35;101106.16;5018134;28;19917;-79
2022/07/14 02:08:51;;;;;;;;;;;;;;;20.44;41.35;101106.56;5017928;28;19909;-80
2022/07/14 02:14:01;;;;;;;;;;;;;;;20.38;40.79;101104.69;5036731;28;19916;-79
2022/07/14 02:16:27;;;;;;;;;;;;;;;20.21;41.46;101103.50;5035931;28;19943;-79
2022/07/14 02:18:53;;;;;;;;;;;;;;;20.20;41.38;101101.78;5045248;28;19952;-81
2022/07/14 02:21:18;;;;;;;;;;;;;;;20.36;41.51;101120.44;5021976;28;19963;-79
2022/07/14 02:23:44;;;;;;;;;;;;;;;20.32;42.03;101102.84;5041841;28;19955;-80
2022/07/14 02:26:10;;;;;;;;;;;;;;;20.28;41.67;101112.50;5001001;28;19956;-80
2022/07/14 02:28:35;;;;;;;;;;;;;;;20.24;41.93;101111.25;5039256;28;19952;-80
2022/07/14 02:31:01;;;;;;;;;;;;;;;20.22;42.06;101113.34;5034529;28;19952;-80
2022/07/14 02:33:26;;;;;;;;;;;;;;;20.23;42.15;101112.31;5015703;28;20296;-79
2022/07/14 02:35:52;;;;;;;;;;;;;;;20.20;42.37;101112.72;5036898;28;20358;-79
2022/07/14 02:38:17;;;;;;;;;;;;;;;20.21;41.92;101122.59;5043174;28;19915;-79
2022/07/14 02:40:42;;;;;;;;;;;;;;;20.15;42.22;101112.53;5015739;28;20269;-79
2022/07/14 02:43:08;;;;;;;;;;;;;;;20.18;41.99;101118.41;5019739;28;19955;-79
2022/07/14 02:45:33;;;;;;;;;;;;;;;20.00;43.34;101110.88;5034019;28;19966;-80
2022/07/14 02:47:58;;;;;;;;;;;;;;;19.97;43.25;101110.44;5025975;28;20372;-80
2022/07/14 02:50:23;;;;;;;;;;;;;;;20.02;43.08;101119.69;5015034;28;19913;-79
2022/07/14 02:52:49;;;;;;;;;;;;;;;20.01;43.19;101118.00;5035236;28;19974;-79
2022/07/14 02:55:15;;;;;;;;;;;;;;;19.86;43.74;101119.28;5019360;28;20356;-79
2022/07/14 02:57:40;;;;;;;;;;;;;;;19.86;43.41;101125.59;5038089;28;19909;-78
2022/07/14 03:00:06;;;;;;;;;;;;;;;19.69;44.02;101119.72;5032867;28;19909;-79
2022/07/14 03:02:32;;;;;;;;;;;;;;;19.56;44.33;101115.06;5037366;28;20455;-79
2022/07/14 03:04:57;;;;;;;;;;;;;;;19.62;44.34;101129.75;5015116;28;19909;-79
2022/07/14 03:07:23;;;;;;;;;;;;;;;19.70;43.71;101126.00;5037221;28;19963;-80
2022/07/14 03:09:48;;;;;;;;;;;;;;;19.64;43.81;101121.34;5032334;28;19920;-79
2022/07/14 03:12:13;;;;;;;;;;;;;;;19.59;44.33;101124.69;5038325;28;19924;-79
2022/07/14 03:14:39;;;;;;;;;;;;;;;19.48;44.28;101123.47;5014890;28;20480;-79
2022/07/14 03:17:04;;;;;;;;;;;;;;;19.47;44.52;101127.22;5036178;28;20366;-80
2022/07/14 03:19:29;;;;;;;;;;;;;;;19.52;44.21;101123.88;5006408;28;19941;-79
2022/07/14 03:21:54;;;;;;;;;;;;;;;19.49;44.56;101130.56;5034970;28;19988;-79
2022/07/14 03:24:23;;;;;;;;;;;;;;;19.45;44.78;101125.75;5039706;28;19913;-78
2022/07/14 03:26:48;;;;;;;;;;;;;;;19.41;44.49;101122.63;5034666;28;19971;-79
2022/07/14 03:29:13;;;;;;;;;;;;;;;19.46;44.66;101125.56;5041394;28;19967;-79
2022/07/14 03:31:38;;;;;;;;;;;;;;;19.58;44.39;101136.69;5033404;28;19913;-81
2022/07/14 03:34:04;;;;;;;;;;;;;;;19.57;44.72;101127.66;5015730;28;20403;-79
2022/07/14 03:36:29;;;;;;;;;;;;;;;19.58;44.22;101134.78;5016408;28;19917;-80
2022/07/14 03:38:55;;;;;;;;;;;;;;;19.55;44.02;101137.06;5040634;28;19963;-79
2022/07/14 03:41:20;;;;;;;;;;;;;;;19.52;43.91;101135.59;5033259;28;19912;-79
2022/07/14 03:43:45;;;;;;;;;;;;;;;19.47;44.07;101138.13;5018880;28;19916;-79
2022/07/14 03:46:12;;;;;;;;;;;;;;;19.55;44.15;101126.16;5015802;28;19916;-79
2022/07/14 03:48:37;;;;;;;;;;;;;;;19.47;44.05;101134.56;5021265;28;19919;-78
2022/07/14 03:51:03;;;;;;;;;;;;;;;19.46;43.91;101141.06;5017621;28;20003;-80
2022/07/14 03:53:32;;;;;;;;;;;;;;;19.46;44.06;101144.63;5042955;28;19955;-80
2022/07/14 03:55:57;;;;;;;;;;;;;;;19.40;43.85;101143.56;5014878;28;19909;-82
2022/07/14 03:58:23;;;;;;;;;;;;;;;19.42;43.81;101151.53;5016875;28;20008;-81
2022/07/14 04:00:48;;;;;;;;;;;;;;;19.50;43.93;101140.44;5031772;28;20365;-78
2022/07/14 04:03:14;;;;;;;;;;;;;;;19.51;43.62;101142.13;5034748;28;20367;-79
2022/07/14 04:05:39;;;;;;;;;;;;;;;19.39;44.05;101146.50;5013308;28;19913;-80
2022/07/14 04:08:04;;;;;;;;;;;;;;;19.53;43.92;101148.22;5035781;28;19975;-78
2022/07/14 04:10:30;;;;;;;;;;;;;;;19.56;43.70;101146.94;5013173;28;20242;-80
2022/07/14 04:12:56;;;;;;;;;;;;;;;19.68;43.80;101152.63;5019203;28;19952;-80
2022/07/14 04:15:21;;;;;;;;;;;;;;;19.87;43.45;101153.69;5013990;28;19909;-78
2022/07/14 04:17:47;;;;;;;;;;;;;;;20.09;42.88;101157.03;5036981;28;20343;-81
2022/07/14 04:20:12;;;;;;;;;;;;;;;20.30;42.85;101154.09;5044665;28;20422;-81
2022/07/14 04:22:37;;;;;;;;;;;;;;;20.31;42.56;101161.22;5021690;28;20391;-81
2022/07/14 04:25:03;;;;;;;;;;;;;;;20.51;42.21;101149.38;5032636;28;19915;-79
2022/07/14 04:27:28;;;;;;;;;;;;;;;20.71;41.68;101157.56;5037531;28;19936;-78
2022/07/14 04:29:53;;;;;;;;;;;;;;;20.81;41.10;101157.94;5031729;28;19916;-80
2022/07/14 04:32:19;;;;;;;;;;;;;;;20.97;40.85;101159.34;5015547;28;20052;-79
2022/07/14 04:34:45;;;;;;;;;;;;;;;21.12;40.65;101162.63;5032733;28;20017;-79
2022/07/14 04:37:11;;;;;;;;;;;;;;;21.24;40.33;101160.88;5015846;28;19919;-80
2022/07/14 04:39:36;;;;;;;;;;;;;;;21.32;40.29;101161.66;5015530;28;19915;-79
2022/07/14 04:42:02;;;;;;;;;;;;;;;21.45;40.14;101162.47;5016394;28;19939;-80
2022/07/14 04:44:27;;;;;;;;;;;;;;;21.66;39.97;101164.00;5031034;28;19916;-80
2022/07/14 04:46:53;;;;;;;;;;;;;;;21.77;39.40;101169.78;5034680;28;20304;-80
2022/07/14 04:52:02;;;;;;;;;;;;;;;22.17;39.15;101161.22;5033217;28;19964;-79
2022/07/14 04:54:31;;;;;;;;;;;;;;;22.29;39.01;101167.69;5035597;28;19913;-79
2022/07/14 04:56:57;;;;;;;;;;;;;;;22.53;38.49;101164.03;5036838;28;19916;-79
2022/07/14 04:59:22;;;;;;;;;;;;;;;22.65;38.42;101166.03;5012845;28;19916;-81
2022/07/14 05:01:48;;;;;;;;;;;;;;;22.81;38.32;101159.91;5015356;28;20270;-79
2022/07/14 05:04:13;;;;;;;;;;;;;;;23.06;38.01;101164.47;5015707;28;19909;-80
2022/07/14 05:06:38;;;;;;;;;;;;;;;23.25;37.70;101160.63;5015229;28;19927;-78
2022/07/14 05:09:03;;;;;;;;;;;;;;;23.38;37.53;101163.16;4998145;28;19916;-79
2022/07/14 05:11:29;;;;;;;;;;;;;;;23.59;37.36;101160.97;5032135;28;20026;-78
2022/07/14 05:13:54;;;;;;;;;;;;;;;23.82;36.75;101159.38;5033690;28;19916;-81
2022/07/14 05:16:20;;;;;;;;;;;;;;;24.14;36.06;101165.34;4997196;28;20444;-79
2022/07/14 05:18:46;;;;;;;;;;;;;;;24.15;36.03;101162.34;5040643;28;19908;-80
2022/07/14 05:21:11;;;;;;;;;;;;;;;24.28;36.26;101168.69;5002992;28;20443;-79
2022/07/14 05:23:37;;;;;;;;;;;;;;;24.48;36.32;101174.66;5021110;28;19913;-79
2022/07/14 05:26:02;;;;;;;;;;;;;;;24.74;36.28;101172.47;5031115;28;19913;-81
2022/07/14 05:28:27;;;;;;;;;;;;;;;24.95;35.70;101165.47;5041035;28;20028;-80
2022/07/14 05:30:57;;;;;;;;;;;;;;;25.01;35.60;101173.59;5012512;28;19909;-79
2022/07/14 05:33:22;;;;;;;;;;;;;;;25.27;36.08;101174.13;5032531;28;19913;-80
2022/07/14 05:35:47;;;;;;;;;;;;;;;25.50;35.58;101170.41;5013112;28;19909;-79
2022/07/14 05:38:13;;;;;;;;;;;;;;;25.62;35.24;101175.84;5034782;28;19909;-79
2022/07/14 05:40:38;;;;;;;;;;;;;;;25.81;34.78;101171.75;5032894;28;19916;-79
2022/07/14 05:43:03;;;;;;;;;;;;;;;25.91;34.69;101176.63;5045568;28;19996;-79
2022/07/14 05:45:29;;;;;;;;;;;;;;;26.11;33.99;101167.88;5033916;28;19916;-79
2022/07/14 05:47:54;;;;;;;;;;;;;;;26.29;33.79;101170.34;5018335;28;19913;-80
2022/07/14 05:50:19;;;;;;;;;;;;;;;26.41;33.42;101174.88;5038229;28;19924;-79
2022/07/14 05:52:45;;;;;;;;;;;;;;;26.51;33.65;101175.06;5002415;28;19986;-79
2022/07/14 05:55:10;;;;;;;;;;;;;;;26.76;32.79;101170.97;5020922;28;19962;-79
2022/07/14 05:57:35;;;;;;;;;;;;;;;26.83;32.79;101166.97;5018700;28;19912;-79
2022/07/14 06:00:01;;;;;;;;;;;;;;;27.01;32.57;101168.53;5034261;28;20341;-80
2022/07/14 06:02:26;;;;;;;;;;;;;;;27.34;32.31;101173.03;5036886;28;19917;-79
2022/07/14 06:04:51;;;;;;;;;;;;;;;27.52;31.79;101165.50;5033734;28;19916;-80
2022/07/14 06:07:17;;;;;;;;;;;;;;;27.60;31.51;101158.66;5038188;28;20388;-78
2022/07/14 06:09:42;;;;;;;;;;;;;;;27.64;31.25;101162.56;5033547;28;19930;-78
2022/07/14 06:12:08;;;;;;;;;;;;;;;27.70;31.18;101153.25;5038217;28;20309;-80
2022/07/14 06:14:33;;;;;;;;;;;;;;;27.62;31.40;101167.50;5016634;28;20004;-78
2022/07/14 06:16:58;;;;;;;;;;;;;;;27.66;31.54;101166.72;5039565;28;20333;-79
2022/07/14 06:19:24;;;;;;;;;;;;;;;27.90;31.28;101156.16;5048740;28;19909;-79
2022/07/14 06:21:49;;;;;;;;;;;;;;;27.96;31.40;101163.41;5017547;28;20359;-79
2022/07/14 06:24:15;;;;;;;;;;;;;;;28.02;31.10;101163.44;5041787;28;19956;-79
2022/07/14 06:26:40;;;;;;;;;;;;;;;28.28;30.88;101162.50;5036197;28;20091;-79
2022/07/14 06:29:05;;;;;;;;;;;;;;;28.40;30.29;101157.63;5030540;28;19909;-80
2022/07/14 06:31:34;;;;;;;;;;;;;;;28.44;30.07;101162.59;5034801;28;19913;-80
2022/07/14 06:33:59;;;;;;;;;;;;;;;28.54;30.35;101165.44;5024492;28;19947;-79
2022/07/14 06:36:25;;;;;;;;;;;;;;;28.77;29.79;101159.44;5035635;28;19954;-80
2022/07/14 06:38:50;;;;;;;;;;;;;;;28.99;29.43;101161.22;5000878;28;19920;-80
2022/07/14 06:41:15;;;;;;;;;;;;;;;29.16;29.22;101159.06;5033374;28;19921;-80
2022/07/14 06:43:41;;;;;;;;;;;;;;;29.23;29.00;101158.81;5036537;28;19920;-77
2022/07/14 06:46:07;;;;;;;;;;;;;;;29.42;28.71;101154.38;5016429;28;19920;-80
2022/07/14 06:48:32;;;;;;;;;;;;;;;29.54;28.38;101158.84;5016386;28;20396;-79
2022/07/14 06:51:01;;;;;;;;;;;;;;;29.98;27.76;101148.03;5032803;28;19913;-80
2022/07/14 06:53:29;;;;;;;;;;;;;;;30.10;27.23;101150.53;5041143;28;19908;-79
2022/07/14 06:55:55;;;;;;;;;;;;;;;30.38;27.23;101139.94;5014775;28;20300;-80
2022/07/14 06:58:20;;;;;;;;;;;;;;;30.64;26.58;101141.50;5041548;28;20067;-80
2022/07/14 07:00:45;;;;;;;;;;;;;;;30.84;26.39;101148.94;5016748;28;20357;-81
2022/07/14 07:03:11;;;;;;;;;;;;;;;30.95;25.62;101143.31;5019429;28;19952;-80
2022/07/14 07:08:21;;;;;;;;;;;;;;;30.99;25.06;101144.41;5038015;28;20383;-78
2022/07/14 07:10:46;;;;;;;;;;;;;;;30.91;24.92;101143.91;5032643;28;19909;-79
2022/07/14 07:13:11;;;;;;;;;;;;;;;31.18;24.84;101134.28;5038471;28;19913;-80
2022/07/14 07:15:37;;;;;;;;;;;;;;;31.42;24.85;101142.78;5014578;28;19987;-81
2022/07/14 07:18:04;;;;;;;;;;;;;;;31.61;24.86;101145.69;5038366;28;20015;-80
2022/07/14 07:20:29;;;;;;;;;;;;;;;31.57;24.31;101135.44;5014602;28;19913;-81
2022/07/14 07:22:54;;;;;;;;;;;;;;;31.75;24.19;101135.56;5042062;28;19913;-82
2022/07/14 07:25:20;;;;;;;;;;;;;;;31.98;24.04;101133.13;5032082;28;20407;-80
2022/07/14 07:27:45;;;;;;;;;;;;;;;32.06;23.60;101135.28;5023640;28;19913;-80
2022/07/14 07:30:10;;;;;;;;;;;;;;;32.25;23.61;101131.75;5033790;28;20509;-80
2022/07/14 07:32:36;;;;;;;;;;;;;;;32.24;24.07;101130.94;5016036;28;20334;-80
2022/07/14 07:35:01;;;;;;;;;;;;;;;32.48;24.08;101130.91;5014334;28;20012;-80
2022/07/14 07:37:27;;;;;;;;;;;;;;;32.65;23.76;101135.19;5034202;28;19917;-79
2022/07/14 07:39:52;;;;;;;;;;;;;;;32.87;23.87;101132.66;5013929;28;19971;-80
2022/07/14 07:42:17;;;;;;;;;;;;;;;33.24;23.09;101131.03;5020378;28;20023;-80
2022/07/14 07:44:43;;;;;;;;;;;;;;;33.63;22.84;101132.66;5019419;28;19916;-81
2022/07/14 07:47:08;;;;;;;;;;;;;;;33.81;21.72;101131.78;5004322;28;19913;-80
2022/07/14 07:49:34;;;;;;;;;;;;;;;34.18;21.49;101123.59;5035909;28;19909;-81
2022/07/14 07:51:59;;;;;;;;;;;;;;;34.41;20.64;101119.75;5036232;28;19912;-80
2022/07/14 07:54:25;;;;;;;;;;;;;;;34.80;20.27;101120.38;5018535;28;20221;-81
2022/07/14 07:56:50;;;;;;;;;;;;;;;35.09;20.30;101129.19;5016518;28;20005;-79
2022/07/14 07:59:16;;;;;;;;;;;;;;;35.15;19.95;101120.72;5031143;28;19948;-81
2022/07/14 08:01:44;;;;;;;;;;;;;;;35.48;19.74;101119.31;5035259;28;19916;-81
2022/07/14 08:04:14;;;;;;;;;;;;;;;35.18;19.85;101112.53;5032366;28;19905;-80
2022/07/14 08:06:39;;;;;;;;;;;;;;;35.25;19.81;101112.91;5033843;28;19919;-81
2022/07/14 08:09:04;;;;;;;;;;;;;;;35.67;19.02;101112.75;5033147;28;19909;-79
2022/07/14 08:11:30;;;;;;;;;;;;;;;35.25;19.47;101106.50;5033738;28;19963;-81
2022/07/14 08:13:55;;;;;;;;;;;;;;;35.68;19.36;101112.44;5041497;28;20465;-81
2022/07/14 08:16:21;;;;;;;;;;;;;;;35.62;19.05;101110.06;5014362;28;19916;-79
2022/07/14 08:18:46;;;;;;;;;;;;;;;35.96;18.40;101111.41;5041498;28;19908;-82
2022/07/14 08:21:12;;;;;;;;;;;;;;;36.24;17.96;101115.66;5011541;28;19916;-84
2022/07/14 08:23:40;;;;;;;;;;;;;;;36.43;17.63;101106.16;5022068;28;19920;-82
2022/07/14 08:26:07;;;;;;;;;;;;;;;36.92;18.30;101096.53;5015860;28;19916;-83
2022/07/14 08:28:33;;;;;;;;;;;;;;;37.38;16.37;101088.66;5014251;28;19924;-80
2022/07/14 08:30:58;;;;;;;;;;;;;;;37.93;15.34;101093.47;5032268;28;19908;-82
2022/07/14 08:33:23;;;;;;;;;;;;;;;37.80;14.81;101088.91;5033718;28;19915;-81
2022/07/14 08:35:49;;;;;;;;;;;;;;;37.68;15.98;101100.81;5025587;28;19929;-81
2022/07/14 08:38:14;;;;;;;;;;;;;;;37.82;15.71;101094.19;5038996;28;19921;-81
2022/07/14 08:40:39;;;;;;;;;;;;;;;38.43;14.49;101091.94;5033068;28;19959;-83
2022/07/14 08:43:05;;;;;;;;;;;;;;;38.76;14.17;101097.69;5007451;28;20018;-82
2022/07/14 08:45:30;;;;;;;;;;;;;;;38.96;13.40;101092.44;5014138;28;19975;-82
2022/07/14 08:47:56;;;;;;;;;;;;;;;39.53;13.15;101091.75;5014769;28;19963;-81
2022/07/14 08:50:21;;;;;;;;;;;;;;;39.58;13.27;101091.53;5012766;28;19909;-84
2022/07/14 08:52:47;;;;;;;;;;;;;;;39.59;13.25;101084.72;5037037;28;19932;-82
2022/07/14 08:55:17;;;;;;;;;;;;;;;39.51;13.16;101085.66;5013641;28;20008;-80
2022/07/14 08:57:43;;;;;;;;;;;;;;;39.51;12.85;101082.84;5020549;28;19913;-80
2022/07/14 09:00:11;;;;;;;;;;;;;;;39.41;13.29;101083.28;5032445;28;19905;-81
2022/07/14 09:02:36;;;;;;;;;;;;;;;39.73;13.12;101073.13;5021797;28;19913;-81
2022/07/14 09:05:02;;;;;;;;;;;;;;;40.35;13.04;101070.41;5034485;28;20288;-78
2022/07/14 09:07:31;;;;;;;;;;;;;;;41.07;12.23;101074.22;5039377;28;20396;-82
2022/07/14 09:10:03;;;;;;;;;;;;;;;41.17;12.54;101072.94;5016452;28;19948;-83
2022/07/14 09:12:29;;;;;;;;;;;;;;;41.71;11.84;101068.75;5020644;28;20055;-82
2022/07/14 09:17:48;;;;;;;;;;;;;;;41.86;12.25;101059.44;5032675;28;20412;-80
2022/07/14 09:20:13;;;;;;;;;;;;;;;40.67;14.45;101066.59;5023445;28;19951;-81
2022/07/14 09:22:41;;;;;;;;;;;;;;;40.00;15.26;101073.69;5019226;28;20001;-82
2022/07/14 09:25:08;;;;;;;;;;;;;;;40.23;15.28;101066.41;5031030;28;20313;-84
2022/07/14 09:27:35;;;;;;;;;;;;;;;40.94;14.86;101061.34;5015629;28;19913;-85
2022/07/14 09:30:02;;;;;;;;;;;;;;;41.08;14.40;101070.22;5015594;28;19913;-82
2022/07/14 09:32:46;;;;;;;;;;;;;;;41.09;15.14;101059.75;5014753;28;19923;-83
2022/07/14 09:35:12;;;;;;;;;;;;;;;40.20;14.53;101069.09;5032235;28;19913;-83
2022/07/14 09:37:38;;;;;;;;;;;;;;;40.05;15.59;101067.81;5002028;28;19916;-82
2022/07/14 09:40:03;;;;;;;;;;;;;;;40.00;15.46;101066.06;5015208;28;20407;-81
2022/07/14 09:42:48;;;;;;;;;;;;;;;40.54;15.29;101055.72;5001729;28;20269;-82
2022/07/14 09:45:16;;;;;;;;;;;;;;;40.49;16.42;101062.41;5029903;28;19935;-81
2022/07/14 09:47:54;;;;;;;;;;;;;;;40.20;16.80;101058.63;5033285;28;19923;-82
2022/07/14 09:50:38;;;;;;;;;;;;;;;39.95;16.49;101057.84;5014408;28;20409;-81
2022/07/14 09:53:11;;;;;;;;;;;;;;;40.32;16.22;101055.03;5034258;28;20373;-80
2022/07/14 09:55:39;;;;;;;;;;;;;;;41.31;15.64;101062.03;5017593;28;19926;-83
2022/07/14 09:58:04;;;;;;;;;;;;;;;40.68;15.53;101050.50;5032815;28;19921;-82
2022/07/14 10:00:30;;;;;;;;;;;;;;;40.83;14.77;101052.56;5012455;28;19972;-81
2022/07/14 10:02:55;;;;;;;;;;;;;;;41.41;13.97;101048.59;5032466;28;19984;-78
2022/07/14 10:05:20;;;;;;;;;;;;;;;40.18;14.73;101043.28;5031159;28;19914;-80
2022/07/14 10:07:47;;;;;;;;;;;;;;;40.68;13.53;101050.50;5032563;28;19913;-81
2022/07/14 10:10:12;;;;;;;;;;;;;;;39.95;14.12;101052.22;5014300;28;20011;-81
2022/07/14 10:12:38;;;;;;;;;;;;;;;40.15;14.05;101046.81;5014622;28;19955;-80
2022/07/14 10:15:04;;;;;;;;;;;;;;;41.55;13.13;101041.34;4996690;28;19909;-81
2022/07/14 10:17:30;;;;;;;;;;;;;;;41.85;13.28;101031.59;5016298;28;20028;-80
2022/07/14 10:19:56;;;;;;;;;;;;;;;40.41;13.48;101047.25;5029009;28;20321;-79
2022/07/14 10:22:21;;;;;;;;;;;;;;;38.72;14.64;101034.91;5013090;28;19963;-81
2022/07/14 10:24:49;;;;;;;;;;;;;;;37.99;16.10;101038.81;5010742;28;20366;-79
2022/07/14 10:27:16;;;;;;;;;;;;;;;39.45;16.10;101044.84;5007606;28;19919;-81
2022/07/14 10:29:41;;;;;;;;;;;;;;;39.71;16.43;101032.47;5037092;28;20408;-80
2022/07/14 10:32:06;;;;;;;;;;;;;;;39.00;16.35;101035.19;5017263;28;19908;-81
2022/07/14 10:34:40;;;;;;;;;;;;;;;39.36;15.99;101030.91;5033381;28;20002;-80
2022/07/14 10:37:23;;;;;;;;;;;;;;;38.82;15.71;101042.94;5035459;28;19959;-81
2022/07/14 10:39:48;;;;;;;;;;;;;;;37.59;17.42;101035.50;5017257;28;19911;-80
2022/07/14 10:42:33;;;;;;;;;;;;;;;37.59;16.51;101039.13;5024054;28;20426;-81
2022/07/14 10:45:00;;;;;;;;;;;;;;;37.31;16.72;101035.06;5036470;28;19909;-79
2022/07/14 10:47:37;;;;;;;;;;;;;;;36.83;16.79;101025.72;5023332;28;19916;-79
2022/07/14 10:50:06;;;;;;;;;;;;;;;36.10;17.24;101028.22;5021713;28;20012;-80
2022/07/14 10:52:32;;;;;;;;;;;;;;;36.49;17.21;101018.91;5031558;28;20304;-79
2022/07/14 10:55:09;;;;;;;;;;;;;;;36.21;17.28;101000.75;5033016;28;19916;-82
2022/07/14 10:57:35;;;;;;;;;;;;;;;35.00;18.35;101008.16;5040177;28;20285;-80
2022/07/14 11:00:00;;;;;;;;;;;;;;;35.31;18.54;101004.63;5029403;28;19913;-81
2022/07/14 11:02:29;;;;;;;;;;;;;;;35.49;18.40;101009.16;4998123;28;20405;-83
2022/07/14 11:05:08;;;;;;;;;;;;;;;35.82;18.22;101008.81;5035076;28;20074;-81
2022/07/14 11:07:46;;;;;;;;;;;;;;;34.94;17.57;101012.25;5038743;28;19916;-80
2022/07/14 11:10:21;;;;;;;;;;;;;;;35.20;18.38;101006.84;5021972;28;19913;-80
2022/07/14 11:13:04;;;;;;;;;;;;;;;34.92;18.36;101006.13;5033795;28;19948;-80
2022/07/14 11:15:36;;;;;;;;;;;;;;;34.43;18.52;100999.44;5026316;28;19913;-80
2022/07/14 11:18:26;;;;;;;;;;;;;;;33.37;18.96;100990.94;5036470;28;20001;-78
2022/07/14 11:21:00;;;;;;;;;;;;;;;33.01;20.28;101004.63;5032612;28;20288;-81
2022/07/14 11:23:26;;;;;;;;;;;;;;;33.06;20.03;100999.03;5007135;28;20326;-80
2022/07/14 11:25:52;;;;;;;;;;;;;;;33.37;19.93;100996.53;5022846;28;19909;-81
2022/07/14 11:28:37;;;;;;;;;;;;;;;33.41;19.40;100991.16;5041776;28;19913;-80
2022/07/14 11:31:16;;;;;;;;;;;;;;;33.74;19.58;101000.31;5014892;28;19909;-81
2022/07/14 11:36:29;;;;;;;;;;;;;;;33.83;19.49;100986.47;5034727;28;20360;-79
2022/07/14 11:39:13;;;;;;;;;;;;;;;34.01;19.03;100993.06;5041402;28;19960;-79
2022/07/14 11:41:50;;;;;;;;;;;;;;;34.00;19.21;100983.06;5016596;28;19912;-79
2022/07/14 11:44:39;;;;;;;;;;;;;;;33.50;19.68;100986.50;5016981;28;19913;-80
2022/07/14 11:47:05;;;;;;;;;;;;;;;32.66;20.62;100975.41;5020095;28;20298;-80
2022/07/14 11:49:31;;;;;;;;;;;;;;;32.91;20.63;100977.78;5039491;28;20412;-80
2022/07/14 11:51:57;;;;;;;;;;;;;;;33.06;20.23;100967.53;5018661;28;19913;-79
2022/07/14 11:54:22;;;;;;;;;;;;;;;33.47;20.26;100978.78;5018395;28;20373;-81
2022/07/14 11:56:48;;;;;;;;;;;;;;;33.40;20.13;100979.19;5016182;28;19909;-78
2022/07/14 11:59:17;;;;;;;;;;;;;;;33.29;20.21;100976.88;5032084;28;19913;-79
2022/07/14 12:01:43;;;;;;;;;;;;;;;33.60;19.77;100979.97;5012540;28;19913;-78
2022/07/14 12:04:08;;;;;;;;;;;;;;;33.83;19.64;100976.16;5029811;28;19952;-79
2022/07/14 12:06:36;;;;;;;;;;;;;;;33.24;20.19;100972.22;5022632;28;20396;-79
2022/07/14 12:09:01;;;;;;;;;;;;;;;33.16;20.62;100972.94;5015132;28;19913;-79
2022/07/14 12:11:26;;;;;;;;;;;;;;;32.89;20.21;100980.03;5033415;28;19927;-80
2022/07/14 12:13:53;;;;;;;;;;;;;;;33.14;20.64;100966.84;5007301;28;19917;-84
2022/07/14 12:16:19;;;;;;;;;;;;;;;33.19;20.05;100966.75;5016543;28;19999;-80
2022/07/14 12:18:44;;;;;;;;;;;;;;;33.18;20.94;100977.09;5023474;28;19912;-81
2022/07/14 12:21:09;;;;;;;;;;;;;;;33.56;20.74;100970.53;5039211;28;20419;-80
2022/07/14 12:23:35;;;;;;;;;;;;;;;33.75;20.74;100982.44;5039410;28;19917;-80
2022/07/14 12:26:01;;;;;;;;;;;;;;;34.12;20.45;100985.38;5013116;28;19988;-80
2022/07/14 12:28:26;;;;;;;;;;;;;;;34.34;20.29;100984.59;5020073;28;20371;-80
2022/07/14 12:30:55;;;;;;;;;;;;;;;34.24;20.99;100986.47;5013388;28;19909;-84
2022/07/14 12:33:21;;;;;;;;;;;;;;;33.62;21.69;100986.03;5034983;28;20013;-81
2022/07/14 12:35:46;;;;;;;;;;;;;;;33.17;22.39;100980.97;5013517;28;19909;-80
2022/07/14 12:38:12;;;;;;;;;;;;;;;32.82;26.25;100993.53;5035477;28;19913;-82
2022/07/14 12:40:37;;;;;;;;;;;;;;;32.80;27.88;100984.63;5013361;28;19917;-80
2022/07/14 12:43:03;;;;;;;;;;;;;;;32.31;30.35;100989.53;5016326;28;19909;-81
2022/07/14 12:45:29;;;;;;;;;;;;;;;31.79;33.12;100980.13;5032755;28;19955;-80
2022/07/14 12:47:56;;;;;;;;;;;;;;;31.18;34.63;100991.84;5033204;28;19944;-81
2022/07/14 12:50:24;;;;;;;;;;;;;;;30.48;37.24;101002.06;5034203;28;20003;-80